sensor_id;sensor_type;location;lat;lon;timestamp;P1;durP1;ratioP1;P2;durP2;ratioP2
65275;SDS011;51875;49.994;14.052;2022-12-29T00:00:51;5.38;;;2.75;;
65275;SDS011;51875;49.994;14.052;2022-12-29T00:02:12;5.97;;;3.13;;
65275;SDS011;51875;49.994;14.052;2022-12-29T00:03:28;5.43;;;2.65;;
65275;SDS011;51875;49.994;14.052;2022-12-29T00:04:44;5.47;;;2.72;;
65275;SDS011;51875;49.994;14.052;2022-12-29T00:05:59;4.63;;;2.13;;
65275;SDS011;51875;49.994;14.052;2022-12-29T00:07:16;5.97;;;2.47;;
65275;SDS011;51875;49.994;14.052;2022-12-29T00:08:32;7.07;;;3.22;;
65275;SDS011;51875;49.994;14.052;2022-12-29T00:09:56;8.15;;;3.10;;
65275;SDS011;51875;49.994;14.052;2022-12-29T00:11:16;4.78;;;2.50;;
65275;SDS011;51875;49.994;14.052;2022-12-29T00:12:33;6.47;;;3.20;;
65275;SDS011;51875;49.994;14.052;2022-12-29T00:14:09;4.07;;;2.38;;
65275;SDS011;51875;49.994;14.052;2022-12-29T00:15:44;8.35;;;2.78;;
65275;SDS011;51875;49.994;14.052;2022-12-29T00:16:59;6.53;;;2.45;;
65275;SDS011;51875;49.994;14.052;2022-12-29T00:18:15;5.53;;;2.90;;
65275;SDS011;51875;49.994;14.052;2022-12-29T00:19:31;5.07;;;2.70;;
65275;SDS011;51875;49.994;14.052;2022-12-29T00:21:05;4.60;;;2.40;;
65275;SDS011;51875;49.994;14.052;2022-12-29T00:22:39;4.80;;;2.50;;
65275;SDS011;51875;49.994;14.052;2022-12-29T00:24:15;6.13;;;2.75;;
65275;SDS011;51875;49.994;14.052;2022-12-29T00:25:41;5.28;;;2.55;;
65275;SDS011;51875;49.994;14.052;2022-12-29T00:27:15;6.20;;;2.80;;
65275;SDS011;51875;49.994;14.052;2022-12-29T00:28:49;4.68;;;2.80;;
65275;SDS011;51875;49.994;14.052;2022-12-29T00:30:24;7.60;;;2.45;;
65275;SDS011;51875;49.994;14.052;2022-12-29T00:31:59;4.75;;;2.83;;
65275;SDS011;51875;49.994;14.052;2022-12-29T00:33:33;6.05;;;2.42;;
65275;SDS011;51875;49.994;14.052;2022-12-29T00:35:09;4.97;;;2.55;;
65275;SDS011;51875;49.994;14.052;2022-12-29T00:36:34;7.45;;;2.40;;
65275;SDS011;51875;49.994;14.052;2022-12-29T00:37:54;4.50;;;2.30;;
65275;SDS011;51875;49.994;14.052;2022-12-29T00:39:30;6.10;;;2.38;;
65275;SDS011;51875;49.994;14.052;2022-12-29T00:41:05;5.45;;;2.50;;
65275;SDS011;51875;49.994;14.052;2022-12-29T00:42:39;4.57;;;2.60;;
65275;SDS011;51875;49.994;14.052;2022-12-29T00:44:14;4.78;;;2.00;;
65275;SDS011;51875;49.994;14.052;2022-12-29T00:45:29;5.60;;;2.50;;
65275;SDS011;51875;49.994;14.052;2022-12-29T00:46:45;6.47;;;2.67;;
65275;SDS011;51875;49.994;14.052;2022-12-29T00:48:00;5.50;;;2.55;;
65275;SDS011;51875;49.994;14.052;2022-12-29T00:49:16;5.63;;;2.88;;
65275;SDS011;51875;49.994;14.052;2022-12-29T00:50:47;9.80;;;2.90;;
65275;SDS011;51875;49.994;14.052;2022-12-29T00:52:06;6.45;;;2.95;;
65275;SDS011;51875;49.994;14.052;2022-12-29T00:53:23;6.80;;;2.38;;
65275;SDS011;51875;49.994;14.052;2022-12-29T00:54:40;4.22;;;2.25;;
65275;SDS011;51875;49.994;14.052;2022-12-29T00:55:56;3.00;;;2.10;;
65275;SDS011;51875;49.994;14.052;2022-12-29T00:57:12;3.88;;;2.20;;
65275;SDS011;51875;49.994;14.052;2022-12-29T00:58:28;6.22;;;2.50;;
65275;SDS011;51875;49.994;14.052;2022-12-29T00:59:44;4.88;;;2.40;;
65275;SDS011;51875;49.994;14.052;2022-12-29T01:01:03;3.55;;;2.17;;
65275;SDS011;51875;49.994;14.052;2022-12-29T01:02:20;4.70;;;2.20;;
65275;SDS011;51875;49.994;14.052;2022-12-29T01:03:36;4.43;;;2.05;;
65275;SDS011;51875;49.994;14.052;2022-12-29T01:04:52;4.90;;;2.20;;
65275;SDS011;51875;49.994;14.052;2022-12-29T01:06:08;5.13;;;2.08;;
65275;SDS011;51875;49.994;14.052;2022-12-29T01:07:25;5.55;;;2.13;;
65275;SDS011;51875;49.994;14.052;2022-12-29T01:08:41;4.50;;;1.98;;
65275;SDS011;51875;49.994;14.052;2022-12-29T01:09:56;4.55;;;2.58;;
65275;SDS011;51875;49.994;14.052;2022-12-29T01:11:27;4.65;;;2.38;;
65275;SDS011;51875;49.994;14.052;2022-12-29T01:12:44;5.13;;;2.20;;
65275;SDS011;51875;49.994;14.052;2022-12-29T01:14:00;5.18;;;2.10;;
65275;SDS011;51875;49.994;14.052;2022-12-29T01:15:16;4.90;;;2.40;;
65275;SDS011;51875;49.994;14.052;2022-12-29T01:16:32;4.78;;;2.35;;
65275;SDS011;51875;49.994;14.052;2022-12-29T01:17:48;5.78;;;2.55;;
65275;SDS011;51875;49.994;14.052;2022-12-29T01:19:04;4.50;;;2.38;;
65275;SDS011;51875;49.994;14.052;2022-12-29T01:20:19;4.22;;;2.47;;
65275;SDS011;51875;49.994;14.052;2022-12-29T01:21:35;5.22;;;2.63;;
65275;SDS011;51875;49.994;14.052;2022-12-29T01:22:51;6.18;;;3.20;;
65275;SDS011;51875;49.994;14.052;2022-12-29T01:24:06;5.85;;;2.88;;
65275;SDS011;51875;49.994;14.052;2022-12-29T01:25:22;6.35;;;2.78;;
65275;SDS011;51875;49.994;14.052;2022-12-29T01:26:38;6.95;;;2.25;;
65275;SDS011;51875;49.994;14.052;2022-12-29T01:27:54;6.18;;;2.67;;
65275;SDS011;51875;49.994;14.052;2022-12-29T01:29:09;5.90;;;2.80;;
65275;SDS011;51875;49.994;14.052;2022-12-29T01:30:25;7.28;;;2.90;;
65275;SDS011;51875;49.994;14.052;2022-12-29T01:31:41;6.22;;;2.40;;
65275;SDS011;51875;49.994;14.052;2022-12-29T01:32:56;7.38;;;2.97;;
65275;SDS011;51875;49.994;14.052;2022-12-29T01:34:12;8.40;;;2.53;;
65275;SDS011;51875;49.994;14.052;2022-12-29T01:35:28;6.22;;;2.40;;
65275;SDS011;51875;49.994;14.052;2022-12-29T01:36:43;4.90;;;2.40;;
65275;SDS011;51875;49.994;14.052;2022-12-29T01:37:59;6.88;;;2.80;;
65275;SDS011;51875;49.994;14.052;2022-12-29T01:39:15;6.20;;;3.00;;
65275;SDS011;51875;49.994;14.052;2022-12-29T01:40:42;8.23;;;3.38;;
65275;SDS011;51875;49.994;14.052;2022-12-29T01:42:02;5.60;;;2.70;;
65275;SDS011;51875;49.994;14.052;2022-12-29T01:43:39;4.55;;;2.20;;
65275;SDS011;51875;49.994;14.052;2022-12-29T01:45:16;5.15;;;2.55;;
65275;SDS011;51875;49.994;14.052;2022-12-29T01:46:34;5.45;;;2.63;;
65275;SDS011;51875;49.994;14.052;2022-12-29T01:47:57;6.60;;;3.00;;
65275;SDS011;51875;49.994;14.052;2022-12-29T01:49:26;5.60;;;2.65;;
65275;SDS011;51875;49.994;14.052;2022-12-29T01:50:49;5.65;;;2.88;;
65275;SDS011;51875;49.994;14.052;2022-12-29T01:52:07;5.15;;;2.45;;
65275;SDS011;51875;49.994;14.052;2022-12-29T01:53:25;6.68;;;2.50;;
65275;SDS011;51875;49.994;14.052;2022-12-29T01:54:47;3.92;;;2.35;;
65275;SDS011;51875;49.994;14.052;2022-12-29T01:56:07;4.40;;;2.42;;
65275;SDS011;51875;49.994;14.052;2022-12-29T01:57:30;5.28;;;2.58;;
65275;SDS011;51875;49.994;14.052;2022-12-29T01:58:48;4.93;;;2.10;;
65275;SDS011;51875;49.994;14.052;2022-12-29T02:00:11;4.15;;;2.35;;
65275;SDS011;51875;49.994;14.052;2022-12-29T02:01:28;6.45;;;2.67;;
65275;SDS011;51875;49.994;14.052;2022-12-29T02:02:49;5.93;;;2.30;;
65275;SDS011;51875;49.994;14.052;2022-12-29T02:04:08;3.60;;;2.20;;
65275;SDS011;51875;49.994;14.052;2022-12-29T02:05:28;5.85;;;2.20;;
65275;SDS011;51875;49.994;14.052;2022-12-29T02:06:57;5.70;;;2.60;;
65275;SDS011;51875;49.994;14.052;2022-12-29T02:08:18;4.70;;;2.28;;
65275;SDS011;51875;49.994;14.052;2022-12-29T02:09:37;4.18;;;2.40;;
65275;SDS011;51875;49.994;14.052;2022-12-29T02:10:52;5.70;;;2.53;;
65275;SDS011;51875;49.994;14.052;2022-12-29T02:12:09;4.50;;;2.10;;
65275;SDS011;51875;49.994;14.052;2022-12-29T02:13:25;4.10;;;2.30;;
65275;SDS011;51875;49.994;14.052;2022-12-29T02:14:41;3.97;;;2.00;;
65275;SDS011;51875;49.994;14.052;2022-12-29T02:17:52;5.10;;;2.30;;
65275;SDS011;51875;49.994;14.052;2022-12-29T02:19:24;4.40;;;2.10;;
65275;SDS011;51875;49.994;14.052;2022-12-29T02:21:17;5.85;;;2.20;;
65275;SDS011;51875;49.994;14.052;2022-12-29T02:26:47;4.75;;;1.90;;
65275;SDS011;51875;49.994;14.052;2022-12-29T02:30:05;3.50;;;2.22;;
65275;SDS011;51875;49.994;14.052;2022-12-29T02:31:28;3.15;;;1.88;;
65275;SDS011;51875;49.994;14.052;2022-12-29T02:34:14;3.42;;;1.70;;
65275;SDS011;51875;49.994;14.052;2022-12-29T02:35:56;4.22;;;1.85;;
65275;SDS011;51875;49.994;14.052;2022-12-29T02:37:59;4.30;;;2.22;;
65275;SDS011;51875;49.994;14.052;2022-12-29T02:39:29;2.90;;;1.70;;
65275;SDS011;51875;49.994;14.052;2022-12-29T02:40:57;3.42;;;1.75;;
65275;SDS011;51875;49.994;14.052;2022-12-29T02:45:13;5.10;;;2.00;;
65275;SDS011;51875;49.994;14.052;2022-12-29T02:46:44;3.60;;;2.17;;
65275;SDS011;51875;49.994;14.052;2022-12-29T02:48:10;4.25;;;2.13;;
65275;SDS011;51875;49.994;14.052;2022-12-29T02:49:57;4.80;;;1.95;;
65275;SDS011;51875;49.994;14.052;2022-12-29T02:51:15;3.35;;;1.83;;
65275;SDS011;51875;49.994;14.052;2022-12-29T02:52:40;4.60;;;2.13;;
65275;SDS011;51875;49.994;14.052;2022-12-29T02:54:02;4.85;;;1.80;;
65275;SDS011;51875;49.994;14.052;2022-12-29T02:55:37;2.92;;;1.58;;
65275;SDS011;51875;49.994;14.052;2022-12-29T02:56:53;4.65;;;2.20;;
65275;SDS011;51875;49.994;14.052;2022-12-29T02:59:31;4.53;;;2.15;;
65275;SDS011;51875;49.994;14.052;2022-12-29T03:11:58;3.75;;;1.92;;
65275;SDS011;51875;49.994;14.052;2022-12-29T03:13:27;4.07;;;2.00;;
65275;SDS011;51875;49.994;14.052;2022-12-29T03:15:10;3.70;;;1.83;;
65275;SDS011;51875;49.994;14.052;2022-12-29T03:16:55;3.47;;;1.92;;
65275;SDS011;51875;49.994;14.052;2022-12-29T03:18:20;4.65;;;2.47;;
65275;SDS011;51875;49.994;14.052;2022-12-29T03:19:40;3.42;;;1.88;;
65275;SDS011;51875;49.994;14.052;2022-12-29T03:21:02;4.25;;;2.35;;
65275;SDS011;51875;49.994;14.052;2022-12-29T03:22:25;4.22;;;2.10;;
65275;SDS011;51875;49.994;14.052;2022-12-29T03:23:47;4.20;;;2.28;;
65275;SDS011;51875;49.994;14.052;2022-12-29T03:26:25;4.53;;;2.20;;
65275;SDS011;51875;49.994;14.052;2022-12-29T03:27:42;5.95;;;2.20;;
65275;SDS011;51875;49.994;14.052;2022-12-29T03:29:00;4.30;;;2.30;;
65275;SDS011;51875;49.994;14.052;2022-12-29T03:30:17;5.50;;;2.05;;
65275;SDS011;51875;49.994;14.052;2022-12-29T03:31:33;3.22;;;1.95;;
65275;SDS011;51875;49.994;14.052;2022-12-29T03:32:53;3.58;;;1.88;;
65275;SDS011;51875;49.994;14.052;2022-12-29T03:34:11;4.50;;;2.22;;
65275;SDS011;51875;49.994;14.052;2022-12-29T03:35:29;4.63;;;2.33;;
65275;SDS011;51875;49.994;14.052;2022-12-29T03:36:50;4.90;;;2.08;;
65275;SDS011;51875;49.994;14.052;2022-12-29T03:39:28;3.33;;;2.17;;
65275;SDS011;51875;49.994;14.052;2022-12-29T03:40:45;4.43;;;2.38;;
65275;SDS011;51875;49.994;14.052;2022-12-29T03:42:05;3.83;;;2.08;;
65275;SDS011;51875;49.994;14.052;2022-12-29T03:43:26;5.32;;;2.28;;
65275;SDS011;51875;49.994;14.052;2022-12-29T03:44:43;4.85;;;2.60;;
65275;SDS011;51875;49.994;14.052;2022-12-29T03:46:00;4.45;;;2.22;;
65275;SDS011;51875;49.994;14.052;2022-12-29T03:47:16;4.93;;;2.40;;
65275;SDS011;51875;49.994;14.052;2022-12-29T03:48:31;4.20;;;2.00;;
65275;SDS011;51875;49.994;14.052;2022-12-29T03:49:48;3.75;;;2.00;;
65275;SDS011;51875;49.994;14.052;2022-12-29T03:51:04;2.72;;;1.90;;
65275;SDS011;51875;49.994;14.052;2022-12-29T03:52:20;4.30;;;1.80;;
65275;SDS011;51875;49.994;14.052;2022-12-29T03:53:35;3.67;;;2.08;;
65275;SDS011;51875;49.994;14.052;2022-12-29T03:54:51;4.00;;;1.80;;
65275;SDS011;51875;49.994;14.052;2022-12-29T03:56:07;2.75;;;1.90;;
65275;SDS011;51875;49.994;14.052;2022-12-29T03:57:22;3.08;;;1.63;;
65275;SDS011;51875;49.994;14.052;2022-12-29T03:58:38;2.47;;;1.48;;
65275;SDS011;51875;49.994;14.052;2022-12-29T03:59:54;3.42;;;2.25;;
65275;SDS011;51875;49.994;14.052;2022-12-29T04:01:09;4.03;;;2.17;;
65275;SDS011;51875;49.994;14.052;2022-12-29T04:02:25;3.78;;;1.83;;
65275;SDS011;51875;49.994;14.052;2022-12-29T04:03:41;3.45;;;2.10;;
65275;SDS011;51875;49.994;14.052;2022-12-29T04:04:56;3.38;;;1.80;;
65275;SDS011;51875;49.994;14.052;2022-12-29T04:06:12;3.40;;;1.80;;
65275;SDS011;51875;49.994;14.052;2022-12-29T04:07:28;4.40;;;1.50;;
65275;SDS011;51875;49.994;14.052;2022-12-29T04:08:43;3.25;;;2.00;;
65275;SDS011;51875;49.994;14.052;2022-12-29T04:09:58;2.53;;;1.55;;
65275;SDS011;51875;49.994;14.052;2022-12-29T04:11:14;4.10;;;1.88;;
65275;SDS011;51875;49.994;14.052;2022-12-29T04:12:30;2.97;;;1.77;;
65275;SDS011;51875;49.994;14.052;2022-12-29T04:13:45;2.55;;;1.30;;
65275;SDS011;51875;49.994;14.052;2022-12-29T04:15:01;2.75;;;1.52;;
65275;SDS011;51875;49.994;14.052;2022-12-29T04:16:16;3.42;;;1.70;;
65275;SDS011;51875;49.994;14.052;2022-12-29T04:17:32;5.65;;;1.63;;
65275;SDS011;51875;49.994;14.052;2022-12-29T04:18:48;5.47;;;1.50;;
65275;SDS011;51875;49.994;14.052;2022-12-29T04:20:04;2.40;;;1.40;;
65275;SDS011;51875;49.994;14.052;2022-12-29T04:21:38;2.33;;;1.30;;
65275;SDS011;51875;49.994;14.052;2022-12-29T04:23:04;3.60;;;1.70;;
65275;SDS011;51875;49.994;14.052;2022-12-29T04:24:20;2.38;;;1.40;;
65275;SDS011;51875;49.994;14.052;2022-12-29T04:25:35;4.30;;;1.60;;
65275;SDS011;51875;49.994;14.052;2022-12-29T04:26:51;2.13;;;1.42;;
65275;SDS011;51875;49.994;14.052;2022-12-29T04:28:07;1.95;;;1.52;;
65275;SDS011;51875;49.994;14.052;2022-12-29T04:29:23;2.45;;;1.42;;
65275;SDS011;51875;49.994;14.052;2022-12-29T04:30:38;2.40;;;1.40;;
65275;SDS011;51875;49.994;14.052;2022-12-29T04:31:54;3.60;;;1.52;;
65275;SDS011;51875;49.994;14.052;2022-12-29T04:33:10;3.20;;;1.73;;
65275;SDS011;51875;49.994;14.052;2022-12-29T04:34:25;3.78;;;1.40;;
65275;SDS011;51875;49.994;14.052;2022-12-29T04:35:42;4.25;;;1.55;;
65275;SDS011;51875;49.994;14.052;2022-12-29T04:36:58;2.60;;;1.67;;
65275;SDS011;51875;49.994;14.052;2022-12-29T04:38:14;3.90;;;1.90;;
65275;SDS011;51875;49.994;14.052;2022-12-29T04:39:30;8.82;;;2.30;;
65275;SDS011;51875;49.994;14.052;2022-12-29T04:40:45;3.78;;;2.10;;
65275;SDS011;51875;49.994;14.052;2022-12-29T04:42:01;4.18;;;2.13;;
65275;SDS011;51875;49.994;14.052;2022-12-29T04:43:17;4.03;;;2.00;;
65275;SDS011;51875;49.994;14.052;2022-12-29T04:44:37;3.90;;;2.20;;
65275;SDS011;51875;49.994;14.052;2022-12-29T04:45:52;6.07;;;2.20;;
65275;SDS011;51875;49.994;14.052;2022-12-29T04:47:08;5.68;;;2.25;;
65275;SDS011;51875;49.994;14.052;2022-12-29T04:48:24;8.50;;;2.88;;
65275;SDS011;51875;49.994;14.052;2022-12-29T04:49:39;5.70;;;2.50;;
65275;SDS011;51875;49.994;14.052;2022-12-29T04:50:55;5.53;;;2.60;;
65275;SDS011;51875;49.994;14.052;2022-12-29T04:52:10;6.78;;;2.97;;
65275;SDS011;51875;49.994;14.052;2022-12-29T04:53:26;6.07;;;2.47;;
65275;SDS011;51875;49.994;14.052;2022-12-29T04:54:42;7.90;;;2.03;;
65275;SDS011;51875;49.994;14.052;2022-12-29T04:55:57;4.75;;;2.00;;
65275;SDS011;51875;49.994;14.052;2022-12-29T04:57:13;5.63;;;2.22;;
65275;SDS011;51875;49.994;14.052;2022-12-29T04:58:29;4.45;;;2.00;;
65275;SDS011;51875;49.994;14.052;2022-12-29T04:59:44;5.70;;;2.33;;
65275;SDS011;51875;49.994;14.052;2022-12-29T05:01:00;3.22;;;2.10;;
65275;SDS011;51875;49.994;14.052;2022-12-29T05:02:15;3.22;;;1.90;;
65275;SDS011;51875;49.994;14.052;2022-12-29T05:03:32;5.05;;;2.10;;
65275;SDS011;51875;49.994;14.052;2022-12-29T05:04:47;3.40;;;2.00;;
65275;SDS011;51875;49.994;14.052;2022-12-29T05:06:03;4.20;;;1.95;;
65275;SDS011;51875;49.994;14.052;2022-12-29T05:07:18;4.72;;;2.30;;
65275;SDS011;51875;49.994;14.052;2022-12-29T05:08:34;3.85;;;2.22;;
65275;SDS011;51875;49.994;14.052;2022-12-29T05:09:50;3.70;;;1.75;;
65275;SDS011;51875;49.994;14.052;2022-12-29T05:11:05;9.13;;;2.80;;
65275;SDS011;51875;49.994;14.052;2022-12-29T05:12:21;6.72;;;2.70;;
65275;SDS011;51875;49.994;14.052;2022-12-29T05:13:37;3.30;;;2.20;;
65275;SDS011;51875;49.994;14.052;2022-12-29T05:14:52;5.93;;;2.33;;
65275;SDS011;51875;49.994;14.052;2022-12-29T05:16:08;4.72;;;2.05;;
65275;SDS011;51875;49.994;14.052;2022-12-29T05:17:23;6.75;;;2.00;;
65275;SDS011;51875;49.994;14.052;2022-12-29T05:18:39;5.28;;;1.88;;
65275;SDS011;51875;49.994;14.052;2022-12-29T05:19:55;5.28;;;2.15;;
65275;SDS011;51875;49.994;14.052;2022-12-29T05:21:10;6.03;;;2.50;;
65275;SDS011;51875;49.994;14.052;2022-12-29T05:22:26;4.10;;;2.15;;
65275;SDS011;51875;49.994;14.052;2022-12-29T05:23:42;4.68;;;1.67;;
65275;SDS011;51875;49.994;14.052;2022-12-29T05:24:57;5.15;;;1.90;;
65275;SDS011;51875;49.994;14.052;2022-12-29T05:26:13;6.20;;;2.10;;
65275;SDS011;51875;49.994;14.052;2022-12-29T05:27:28;4.22;;;2.60;;
65275;SDS011;51875;49.994;14.052;2022-12-29T05:28:44;6.85;;;2.00;;
65275;SDS011;51875;49.994;14.052;2022-12-29T05:30:00;4.63;;;2.00;;
65275;SDS011;51875;49.994;14.052;2022-12-29T05:31:15;3.45;;;1.70;;
65275;SDS011;51875;49.994;14.052;2022-12-29T05:32:31;4.20;;;2.10;;
65275;SDS011;51875;49.994;14.052;2022-12-29T05:33:46;2.88;;;1.75;;
65275;SDS011;51875;49.994;14.052;2022-12-29T05:35:02;4.43;;;2.33;;
65275;SDS011;51875;49.994;14.052;2022-12-29T05:36:18;3.80;;;1.80;;
65275;SDS011;51875;49.994;14.052;2022-12-29T05:37:33;4.00;;;1.88;;
65275;SDS011;51875;49.994;14.052;2022-12-29T05:38:49;3.90;;;1.92;;
65275;SDS011;51875;49.994;14.052;2022-12-29T05:40:05;2.97;;;1.70;;
65275;SDS011;51875;49.994;14.052;2022-12-29T05:41:21;4.40;;;1.73;;
65275;SDS011;51875;49.994;14.052;2022-12-29T05:42:37;4.47;;;1.48;;
65275;SDS011;51875;49.994;14.052;2022-12-29T05:43:52;2.03;;;1.40;;
65275;SDS011;51875;49.994;14.052;2022-12-29T05:45:08;2.85;;;1.63;;
65275;SDS011;51875;49.994;14.052;2022-12-29T05:46:24;3.13;;;1.42;;
65275;SDS011;51875;49.994;14.052;2022-12-29T05:47:39;2.63;;;1.48;;
65275;SDS011;51875;49.994;14.052;2022-12-29T05:48:55;2.50;;;1.60;;
65275;SDS011;51875;49.994;14.052;2022-12-29T05:50:11;3.13;;;1.52;;
65275;SDS011;51875;49.994;14.052;2022-12-29T05:51:26;3.00;;;2.00;;
65275;SDS011;51875;49.994;14.052;2022-12-29T05:52:42;4.22;;;1.90;;
65275;SDS011;51875;49.994;14.052;2022-12-29T05:53:58;3.58;;;1.80;;
65275;SDS011;51875;49.994;14.052;2022-12-29T05:55:13;4.20;;;1.63;;
65275;SDS011;51875;49.994;14.052;2022-12-29T05:56:29;3.67;;;1.60;;
65275;SDS011;51875;49.994;14.052;2022-12-29T05:57:44;3.75;;;1.60;;
65275;SDS011;51875;49.994;14.052;2022-12-29T05:59:00;2.75;;;1.50;;
65275;SDS011;51875;49.994;14.052;2022-12-29T06:00:16;3.70;;;1.20;;
65275;SDS011;51875;49.994;14.052;2022-12-29T06:01:32;3.05;;;1.25;;
65275;SDS011;51875;49.994;14.052;2022-12-29T06:02:49;3.67;;;1.48;;
65275;SDS011;51875;49.994;14.052;2022-12-29T06:04:05;2.78;;;1.40;;
65275;SDS011;51875;49.994;14.052;2022-12-29T06:05:20;2.78;;;1.33;;
65275;SDS011;51875;49.994;14.052;2022-12-29T06:06:36;1.92;;;1.30;;
65275;SDS011;51875;49.994;14.052;2022-12-29T06:07:52;3.40;;;1.23;;
65275;SDS011;51875;49.994;14.052;2022-12-29T06:09:09;2.15;;;1.30;;
65275;SDS011;51875;49.994;14.052;2022-12-29T06:10:25;2.38;;;1.40;;
65275;SDS011;51875;49.994;14.052;2022-12-29T06:11:40;1.95;;;1.20;;
65275;SDS011;51875;49.994;14.052;2022-12-29T06:12:56;1.90;;;1.00;;
65275;SDS011;51875;49.994;14.052;2022-12-29T06:14:12;1.90;;;1.27;;
65275;SDS011;51875;49.994;14.052;2022-12-29T06:15:27;1.77;;;1.08;;
65275;SDS011;51875;49.994;14.052;2022-12-29T06:16:43;1.35;;;1.00;;
65275;SDS011;51875;49.994;14.052;2022-12-29T06:17:59;2.97;;;1.08;;
65275;SDS011;51875;49.994;14.052;2022-12-29T06:19:14;1.75;;;1.10;;
65275;SDS011;51875;49.994;14.052;2022-12-29T06:20:30;1.48;;;1.10;;
65275;SDS011;51875;49.994;14.052;2022-12-29T06:21:45;3.08;;;1.10;;
65275;SDS011;51875;49.994;14.052;2022-12-29T06:23:01;2.90;;;1.20;;
65275;SDS011;51875;49.994;14.052;2022-12-29T06:24:17;2.88;;;1.17;;
65275;SDS011;51875;49.994;14.052;2022-12-29T06:25:32;3.17;;;1.30;;
65275;SDS011;51875;49.994;14.052;2022-12-29T06:26:49;3.75;;;1.45;;
65275;SDS011;51875;49.994;14.052;2022-12-29T06:28:04;5.30;;;2.63;;
65275;SDS011;51875;49.994;14.052;2022-12-29T06:29:20;5.53;;;2.22;;
65275;SDS011;51875;49.994;14.052;2022-12-29T06:30:36;7.57;;;2.40;;
65275;SDS011;51875;49.994;14.052;2022-12-29T06:31:52;5.43;;;2.65;;
65275;SDS011;51875;49.994;14.052;2022-12-29T06:33:11;5.10;;;2.58;;
65275;SDS011;51875;49.994;14.052;2022-12-29T06:34:27;4.68;;;2.53;;
65275;SDS011;51875;49.994;14.052;2022-12-29T06:35:43;6.15;;;2.90;;
65275;SDS011;51875;49.994;14.052;2022-12-29T06:36:59;7.72;;;3.05;;
65275;SDS011;51875;49.994;14.052;2022-12-29T06:38:14;6.50;;;2.92;;
65275;SDS011;51875;49.994;14.052;2022-12-29T06:39:30;5.60;;;2.03;;
65275;SDS011;51875;49.994;14.052;2022-12-29T06:40:46;5.22;;;2.17;;
65275;SDS011;51875;49.994;14.052;2022-12-29T06:42:01;5.30;;;2.60;;
65275;SDS011;51875;49.994;14.052;2022-12-29T06:43:17;3.03;;;1.73;;
65275;SDS011;51875;49.994;14.052;2022-12-29T06:44:33;10.65;;;4.43;;
65275;SDS011;51875;49.994;14.052;2022-12-29T06:45:49;19.17;;;7.25;;
65275;SDS011;51875;49.994;14.052;2022-12-29T06:47:04;10.65;;;4.47;;
65275;SDS011;51875;49.994;14.052;2022-12-29T06:48:20;10.32;;;4.68;;
65275;SDS011;51875;49.994;14.052;2022-12-29T06:49:36;7.03;;;3.40;;
65275;SDS011;51875;49.994;14.052;2022-12-29T06:50:51;4.70;;;2.03;;
65275;SDS011;51875;49.994;14.052;2022-12-29T06:52:07;5.18;;;1.63;;
65275;SDS011;51875;49.994;14.052;2022-12-29T06:53:22;1.20;;;0.90;;
65275;SDS011;51875;49.994;14.052;2022-12-29T06:54:38;2.05;;;0.80;;
65275;SDS011;51875;49.994;14.052;2022-12-29T06:55:54;1.70;;;0.80;;
65275;SDS011;51875;49.994;14.052;2022-12-29T06:57:11;1.65;;;0.80;;
65275;SDS011;51875;49.994;14.052;2022-12-29T06:58:27;1.65;;;0.93;;
65275;SDS011;51875;49.994;14.052;2022-12-29T06:59:43;3.55;;;0.90;;
65275;SDS011;51875;49.994;14.052;2022-12-29T07:00:58;1.73;;;1.00;;
65275;SDS011;51875;49.994;14.052;2022-12-29T07:02:14;1.33;;;0.77;;
65275;SDS011;51875;49.994;14.052;2022-12-29T07:03:29;1.42;;;0.90;;
65275;SDS011;51875;49.994;14.052;2022-12-29T07:04:45;2.10;;;1.20;;
65275;SDS011;51875;49.994;14.052;2022-12-29T07:06:01;2.80;;;1.13;;
65275;SDS011;51875;49.994;14.052;2022-12-29T07:07:17;1.52;;;1.00;;
65275;SDS011;51875;49.994;14.052;2022-12-29T07:08:32;1.27;;;0.90;;
65275;SDS011;51875;49.994;14.052;2022-12-29T07:09:48;3.13;;;1.00;;
65275;SDS011;51875;49.994;14.052;2022-12-29T07:11:04;3.03;;;1.08;;
65275;SDS011;51875;49.994;14.052;2022-12-29T07:12:20;2.13;;;0.90;;
65275;SDS011;51875;49.994;14.052;2022-12-29T07:13:35;1.73;;;1.00;;
65275;SDS011;51875;49.994;14.052;2022-12-29T07:14:51;2.50;;;1.20;;
65275;SDS011;51875;49.994;14.052;2022-12-29T07:16:07;1.88;;;1.10;;
65275;SDS011;51875;49.994;14.052;2022-12-29T07:17:23;1.17;;;0.90;;
65275;SDS011;51875;49.994;14.052;2022-12-29T07:18:39;3.70;;;1.10;;
65275;SDS011;51875;49.994;14.052;2022-12-29T07:19:55;2.30;;;1.08;;
65275;SDS011;51875;49.994;14.052;2022-12-29T07:21:10;2.75;;;1.15;;
65275;SDS011;51875;49.994;14.052;2022-12-29T07:22:26;1.73;;;0.90;;
65275;SDS011;51875;49.994;14.052;2022-12-29T07:23:42;2.60;;;0.98;;
65275;SDS011;51875;49.994;14.052;2022-12-29T07:24:58;6.05;;;1.50;;
65275;SDS011;51875;49.994;14.052;2022-12-29T07:26:14;2.53;;;1.05;;
65275;SDS011;51875;49.994;14.052;2022-12-29T07:27:30;2.00;;;1.20;;
65275;SDS011;51875;49.994;14.052;2022-12-29T07:28:45;2.85;;;1.40;;
65275;SDS011;51875;49.994;14.052;2022-12-29T07:30:01;1.83;;;1.23;;
65275;SDS011;51875;49.994;14.052;2022-12-29T07:31:18;2.15;;;1.20;;
65275;SDS011;51875;49.994;14.052;2022-12-29T07:32:35;1.92;;;1.30;;
65275;SDS011;51875;49.994;14.052;2022-12-29T07:33:50;1.92;;;1.10;;
65275;SDS011;51875;49.994;14.052;2022-12-29T07:35:06;3.92;;;1.38;;
65275;SDS011;51875;49.994;14.052;2022-12-29T07:36:22;4.03;;;2.10;;
65275;SDS011;51875;49.994;14.052;2022-12-29T07:37:38;3.10;;;2.00;;
65275;SDS011;51875;49.994;14.052;2022-12-29T07:38:53;4.78;;;1.63;;
65275;SDS011;51875;49.994;14.052;2022-12-29T07:40:09;4.45;;;1.83;;
65275;SDS011;51875;49.994;14.052;2022-12-29T07:41:26;4.38;;;2.05;;
65275;SDS011;51875;49.994;14.052;2022-12-29T07:42:41;2.65;;;1.45;;
65275;SDS011;51875;49.994;14.052;2022-12-29T07:43:56;3.38;;;1.70;;
65275;SDS011;51875;49.994;14.052;2022-12-29T07:45:12;4.68;;;2.10;;
65275;SDS011;51875;49.994;14.052;2022-12-29T07:46:28;9.75;;;3.85;;
65275;SDS011;51875;49.994;14.052;2022-12-29T07:47:46;8.38;;;4.30;;
65275;SDS011;51875;49.994;14.052;2022-12-29T07:49:03;8.32;;;3.50;;
65275;SDS011;51875;49.994;14.052;2022-12-29T07:50:19;5.97;;;2.72;;
65275;SDS011;51875;49.994;14.052;2022-12-29T07:51:34;4.63;;;2.92;;
65275;SDS011;51875;49.994;14.052;2022-12-29T07:52:50;3.75;;;2.20;;
65275;SDS011;51875;49.994;14.052;2022-12-29T07:54:05;6.28;;;2.00;;
65275;SDS011;51875;49.994;14.052;2022-12-29T07:55:21;3.75;;;1.60;;
65275;SDS011;51875;49.994;14.052;2022-12-29T07:56:38;2.92;;;1.75;;
65275;SDS011;51875;49.994;14.052;2022-12-29T07:57:54;2.70;;;1.33;;
65275;SDS011;51875;49.994;14.052;2022-12-29T07:59:10;2.33;;;1.30;;
65275;SDS011;51875;49.994;14.052;2022-12-29T08:00:27;4.63;;;1.58;;
65275;SDS011;51875;49.994;14.052;2022-12-29T08:01:42;3.05;;;1.40;;
65275;SDS011;51875;49.994;14.052;2022-12-29T08:02:58;2.70;;;1.60;;
65275;SDS011;51875;49.994;14.052;2022-12-29T08:04:13;2.83;;;1.75;;
65275;SDS011;51875;49.994;14.052;2022-12-29T08:05:30;4.13;;;1.50;;
65275;SDS011;51875;49.994;14.052;2022-12-29T08:06:46;3.80;;;2.20;;
65275;SDS011;51875;49.994;14.052;2022-12-29T08:08:02;4.28;;;2.30;;
65275;SDS011;51875;49.994;14.052;2022-12-29T08:09:17;3.78;;;1.90;;
65275;SDS011;51875;49.994;14.052;2022-12-29T08:10:33;4.57;;;1.38;;
65275;SDS011;51875;49.994;14.052;2022-12-29T08:11:49;2.65;;;1.40;;
65275;SDS011;51875;49.994;14.052;2022-12-29T08:13:04;4.20;;;1.70;;